Time;durP1;ratioP1;P1;durP2;ratioP2;P2;SDS_P1;SDS_P2;PMS_P1;PMS_P2;Temp;Humidity;BMP_temperature;BMP_pressure;BME280_temperature;BME280_humidity;BME280_pressure;Samples;Min_cycle;Max_cycle;Signal;HPM_P1;HPM_P2
2023/08/13 00:01:41;;;;;;;10.70;7.67;;;16.50;99.90;;;;;;5094291;28;20438;-62
2023/08/13 00:04:08;;;;;;;7.47;6.83;;;16.50;99.90;;;;;;5093795;28;20442;-63
2023/08/13 00:06:35;;;;;;;6.80;6.20;;;16.50;99.90;;;;;;5093560;28;20442;-62
2023/08/13 00:09:04;;;;;;;12.03;7.43;;;16.50;99.90;;;;;;5093415;28;20450;-62
2023/08/13 00:11:31;;;;;;;9.97;7.00;;;16.50;99.90;;;;;;5093572;28;20439;-63
2023/08/13 00:13:58;;;;;;;8.20;7.30;;;16.50;99.90;;;;;;5094192;28;20523;-63
2023/08/13 00:16:24;;;;;;;6.70;6.10;;;16.60;99.90;;;;;;5093112;28;21006;-63
2023/08/13 00:18:51;;;;;;;9.60;8.70;;;16.60;99.90;;;;;;5093359;28;20815;-62
2023/08/13 00:21:18;;;;;;;8.83;8.00;;;16.70;99.90;;;;;;5094231;28;20451;-63
2023/08/13 00:23:45;;;;;;;9.00;7.50;;;16.70;99.90;;;;;;5093441;28;20447;-62
2023/08/13 00:26:13;;;;;;;8.57;7.77;;;16.70;99.90;;;;;;5093440;28;20514;-62
2023/08/13 00:28:40;;;;;;;8.90;8.00;;;16.70;99.90;;;;;;5096259;28;20470;-62
2023/08/13 00:31:07;;;;;;;14.57;8.10;;;16.70;99.90;;;;;;5096906;28;20985;-63
2023/08/13 00:33:33;;;;;;;9.43;7.57;;;16.70;99.90;;;;;;5097173;28;20446;-63
2023/08/13 00:36:00;;;;;;;9.97;7.30;;;16.70;99.90;;;;;;5097225;28;20454;-63
2023/08/13 00:38:27;;;;;;;9.37;7.73;;;16.70;99.90;;;;;;5097649;28;20831;-63
2023/08/13 00:40:53;;;;;;;11.13;8.93;;;16.70;99.90;;;;;;5097349;28;20435;-63
2023/08/13 00:43:22;;;;;;;8.77;7.70;;;16.70;99.90;;;;;;5097118;28;20441;-62
2023/08/13 00:45:48;;;;;;;10.33;7.97;;;16.70;99.90;;;;;;5097155;28;20445;-63
2023/08/13 00:48:15;;;;;;;8.23;7.43;;;16.70;99.90;;;;;;5097164;28;20457;-63
2023/08/13 00:50:44;;;;;;;9.50;8.60;;;16.70;99.90;;;;;;5097109;28;20445;-63
2023/08/13 00:53:11;;;;;;;10.03;8.10;;;16.70;99.90;;;;;;5097129;28;20435;-63
2023/08/13 00:55:38;;;;;;;8.10;7.37;;;16.70;99.90;;;;;;5097092;28;20446;-63
2023/08/13 00:58:05;;;;;;;8.03;7.10;;;16.70;99.90;;;;;;5097004;28;20486;-62
2023/08/13 01:00:33;;;;;;;9.17;8.27;;;16.70;99.90;;;;;;5096936;28;20441;-62
2023/08/13 01:03:00;;;;;;;8.87;7.90;;;16.70;99.90;;;;;;5096769;28;20952;-62
2023/08/13 01:05:35;;;;;;;8.07;7.27;;;16.70;99.90;;;;;;5096460;28;20805;-63
2023/08/13 01:08:11;;;;;;;12.00;8.63;;;16.70;99.90;;;;;;5096610;28;20458;-63
2023/08/13 01:10:38;;;;;;;10.33;8.17;;;16.70;99.90;;;;;;5096502;28;20803;-62
2023/08/13 01:13:14;;;;;;;10.27;8.90;;;16.70;99.90;;;;;;5097001;28;20435;-62
2023/08/13 01:15:44;;;;;;;8.83;7.80;;;16.70;99.90;;;;;;5096764;28;20423;-63
2023/08/13 01:18:12;;;;;;;12.23;9.00;;;16.60;99.90;;;;;;5096914;28;20485;-60
2023/08/13 01:20:42;;;;;;;8.60;7.90;;;16.60;99.90;;;;;;5096606;28;20442;-63
2023/08/13 01:23:11;;;;;;;9.77;8.43;;;16.50;99.90;;;;;;5096378;28;20936;-63
2023/08/13 01:25:38;;;;;;;11.23;10.13;;;16.50;99.90;;;;;;5096181;28;20971;-63
2023/08/13 01:28:12;;;;;;;13.73;10.33;;;16.50;99.90;;;;;;5096316;28;20472;-63
2023/08/13 01:30:45;;;;;;;12.20;9.77;;;16.40;99.90;;;;;;5096550;28;20426;-61
2023/08/13 01:33:18;;;;;;;11.33;8.70;;;16.40;99.90;;;;;;5096872;28;20963;-63
2023/08/13 01:35:46;;;;;;;13.93;10.43;;;16.40;99.90;;;;;;5096782;28;20427;-62
2023/08/13 01:38:14;;;;;;;12.13;9.20;;;16.40;99.90;;;;;;5096276;28;20988;-63
2023/08/13 01:40:41;;;;;;;10.40;9.40;;;16.40;99.90;;;;;;5096388;28;20434;-62
2023/08/13 01:43:08;;;;;;;10.80;9.77;;;16.30;99.90;;;;;;5096240;28;20956;-62
2023/08/13 01:45:35;;;;;;;13.40;11.43;;;16.30;99.90;;;;;;5095916;28;20926;-63
2023/08/13 01:48:02;;;;;;;13.53;11.50;;;16.30;99.90;;;;;;5096051;28;20459;-62
2023/08/13 01:50:28;;;;;;;15.40;13.17;;;16.30;99.90;;;;;;5096602;28;20438;-63
2023/08/13 01:52:55;;;;;;;14.00;10.83;;;16.20;99.90;;;;;;5095876;28;20966;-62
2023/08/13 01:55:23;;;;;;;14.30;10.90;;;16.20;99.90;;;;;;5096036;28;20439;-62
2023/08/13 01:57:50;;;;;;;13.37;11.67;;;16.20;99.90;;;;;;5095749;28;20489;-62
2023/08/13 02:00:17;;;;;;;12.90;11.43;;;16.20;99.90;;;;;;5095430;28;20928;-61
2023/08/13 02:02:44;;;;;;;9.70;8.10;;;16.20;99.90;;;;;;5095735;28;20465;-62
2023/08/13 02:05:11;;;;;;;12.70;10.57;;;16.10;99.90;;;;;;5095983;28;20453;-61
2023/08/13 02:07:38;;;;;;;10.47;9.10;;;16.10;99.90;;;;;;5095149;28;20834;-62
2023/08/13 02:10:05;;;;;;;12.90;9.17;;;16.10;99.90;;;;;;5095500;28;20434;-62
2023/08/13 02:12:33;;;;;;;14.80;10.60;;;16.00;99.90;;;;;;5095350;28;20445;-62
2023/08/13 02:15:00;;;;;;;13.33;10.03;;;16.00;99.90;;;;;;5095155;28;20446;-61
2023/08/13 02:17:26;;;;;;;13.00;10.43;;;16.00;99.90;;;;;;5095008;28;20482;-62
2023/08/13 02:19:53;;;;;;;10.60;8.83;;;16.00;99.90;;;;;;5095500;28;20443;-61
2023/08/13 02:22:20;;;;;;;10.60;9.50;;;16.00;99.90;;;;;;5095574;28;20434;-62
2023/08/13 02:24:46;;;;;;;13.83;9.90;;;15.90;99.90;;;;;;5095290;28;20445;-62
2023/08/13 02:27:13;;;;;;;14.00;12.63;;;15.90;99.90;;;;;;5095528;28;20475;-62
2023/08/13 02:29:41;;;;;;;13.10;10.67;;;15.90;99.90;;;;;;5095842;28;20449;-63
2023/08/13 02:32:08;;;;;;;13.37;9.20;;;15.90;99.90;;;;;;5096265;28;20778;-62
2023/08/13 02:34:43;;;;;;;13.03;9.00;;;15.80;99.90;;;;;;5097160;28;20434;-62
2023/08/13 02:37:10;;;;;;;9.00;8.10;;;15.80;99.90;;;;;;5096701;28;20478;-61
2023/08/13 02:39:37;;;;;;;11.30;8.77;;;15.80;99.90;;;;;;5095863;28;20438;-62
2023/08/13 02:42:04;;;;;;;13.90;9.13;;;15.80;99.90;;;;;;5095523;28;20438;-63
2023/08/13 02:44:31;;;;;;;9.57;8.53;;;15.80;99.90;;;;;;5094987;28;20434;-63
2023/08/13 02:46:59;;;;;;;9.03;7.60;;;15.80;99.90;;;;;;5094251;28;20980;-62
2023/08/13 02:49:25;;;;;;;17.67;9.00;;;15.80;99.90;;;;;;5094695;28;20446;-63
2023/08/13 02:51:52;;;;;;;11.60;10.40;;;15.80;99.90;;;;;;5093588;28;20936;-61
2023/08/13 02:54:19;;;;;;;11.30;8.47;;;15.70;99.90;;;;;;5094181;28;20947;-61
2023/08/13 02:56:46;;;;;;;11.83;8.23;;;15.80;99.90;;;;;;5094167;28;20462;-62
2023/08/13 02:59:12;;;;;;;13.33;9.10;;;15.80;99.90;;;;;;5094504;28;20439;-63
2023/08/13 03:01:39;;;;;;;9.90;8.13;;;15.80;99.90;;;;;;5094812;28;20445;-61
2023/08/13 03:04:07;;;;;;;11.90;8.50;;;15.80;99.90;;;;;;5094369;28;20446;-62
2023/08/13 03:06:34;;;;;;;10.80;8.40;;;15.80;99.90;;;;;;5094093;28;20442;-60
2023/08/13 03:09:01;;;;;;;11.83;8.60;;;15.80;99.90;;;;;;5094170;28;20449;-61
2023/08/13 03:11:28;;;;;;;9.80;8.13;;;15.90;99.90;;;;;;5094445;28;20450;-61
2023/08/13 03:13:55;;;;;;;9.17;7.93;;;15.90;99.90;;;;;;5094598;28;20430;-61
2023/08/13 03:16:22;;;;;;;11.40;10.20;;;15.90;99.90;;;;;;5094305;28;20453;-61
2023/08/13 03:18:49;;;;;;;10.37;7.47;;;16.00;99.90;;;;;;5094290;28;20493;-61
2023/08/13 03:21:17;;;;;;;8.80;7.90;;;16.00;99.90;;;;;;5094702;28;20469;-61
2023/08/13 03:23:44;;;;;;;9.93;7.27;;;16.10;99.90;;;;;;5094165;28;20878;-61
2023/08/13 03:26:10;;;;;;;9.17;8.20;;;16.10;99.90;;;;;;5094622;28;20954;-61
2023/08/13 03:28:37;;;;;;;8.03;7.33;;;16.10;99.90;;;;;;5094297;28;20467;-61
2023/08/13 03:31:04;;;;;;;7.80;7.00;;;16.20;99.90;;;;;;5094982;28;20439;-61
2023/08/13 03:33:31;;;;;;;11.03;7.70;;;16.20;99.90;;;;;;5094307;28;20439;-61
2023/08/13 03:35:57;;;;;;;10.47;7.50;;;16.20;99.90;;;;;;5093637;28;20829;-61
2023/08/13 03:38:26;;;;;;;10.20;6.50;;;16.30;99.90;;;;;;5093474;28;20474;-61
2023/08/13 03:40:54;;;;;;;9.50;6.70;;;16.20;99.90;;;;;;5093987;28;20438;-62
2023/08/13 03:43:21;;;;;;;8.27;7.10;;;16.20;99.90;;;;;;5093924;28;20465;-61
2023/08/13 03:45:47;;;;;;;8.23;6.77;;;16.20;99.90;;;;;;5093691;28;20457;-61
2023/08/13 03:48:14;;;;;;;7.83;6.73;;;16.20;99.90;;;;;;5093830;28;20459;-61
2023/08/13 03:50:42;;;;;;;9.37;6.87;;;16.20;99.90;;;;;;5093640;28;20928;-61
2023/08/13 03:53:09;;;;;;;8.33;6.70;;;16.20;99.90;;;;;;5093605;28;20434;-61
2023/08/13 03:55:37;;;;;;;11.33;7.40;;;16.10;99.90;;;;;;5093132;28;20436;-61
2023/08/13 03:58:05;;;;;;;8.30;6.97;;;16.20;99.90;;;;;;5093358;28;20569;-61
2023/08/13 04:00:31;;;;;;;9.43;7.27;;;16.20;99.90;;;;;;5093762;28;20446;-61
2023/08/13 04:02:58;;;;;;;10.77;6.70;;;16.20;99.90;;;;;;5093232;28;20441;-61
2023/08/13 04:05:25;;;;;;;7.03;6.40;;;16.20;99.90;;;;;;5093369;28;20442;-62
2023/08/13 04:07:52;;;;;;;7.00;6.30;;;16.10;99.90;;;;;;5092658;28;20458;-61
2023/08/13 04:12:05;;;;;;;7.40;6.20;;;16.10;99.90;;;;;;5132163;27;20545;-63
2023/08/13 04:14:31;;;;;;;7.47;6.70;;;16.10;99.90;;;;;;5131921;27;20449;-61
2023/08/13 04:16:58;;;;;;;9.13;6.97;;;16.10;99.90;;;;;;5131524;27;20462;-62
2023/08/13 04:19:26;;;;;;;8.50;6.20;;;16.10;99.90;;;;;;5131373;28;20444;-63
2023/08/13 04:21:52;;;;;;;8.27;6.43;;;16.10;99.90;;;;;;5131446;28;20439;-63
2023/08/13 04:24:19;;;;;;;9.00;7.00;;;16.10;99.90;;;;;;5131658;28;20445;-64
2023/08/13 04:26:46;;;;;;;9.83;7.03;;;16.10;99.90;;;;;;5131760;27;20459;-63
2023/08/13 04:29:14;;;;;;;7.40;6.63;;;16.10;99.90;;;;;;5153876;22;20481;-65
2023/08/13 04:31:41;;;;;;;9.57;6.80;;;16.10;99.90;;;;;;5130721;28;20482;-65
2023/08/13 04:34:07;;;;;;;7.30;6.70;;;16.10;99.90;;;;;;5130944;28;20451;-65
2023/08/13 04:36:36;;;;;;;11.83;7.43;;;16.20;99.90;;;;;;5130897;28;20941;-65
2023/08/13 04:39:03;;;;;;;8.67;6.73;;;16.30;99.90;;;;;;5131819;27;20502;-66
2023/08/13 04:41:30;;;;;;;7.13;6.30;;;16.40;99.90;;;;;;5131877;28;20851;-67
2023/08/13 04:43:57;;;;;;;6.90;6.20;;;16.50;99.90;;;;;;5131654;28;20471;-67
2023/08/13 04:46:25;;;;;;;9.10;6.53;;;16.50;99.90;;;;;;5131224;28;20451;-67
2023/08/13 04:48:51;;;;;;;6.30;5.70;;;16.50;99.90;;;;;;5131241;27;20468;-66
2023/08/13 04:51:20;;;;;;;7.17;6.07;;;16.60;99.90;;;;;;5131930;28;20486;-65
2023/08/13 04:53:46;;;;;;;7.00;6.20;;;16.60;99.90;;;;;;5131031;28;20472;-67
2023/08/13 04:56:13;;;;;;;7.73;5.50;;;16.70;99.90;;;;;;5130721;28;20543;-67
2023/08/13 04:58:41;;;;;;;6.50;5.90;;;16.70;99.90;;;;;;5130577;27;21043;-66
2023/08/13 05:01:07;;;;;;;6.63;5.90;;;16.70;99.90;;;;;;5130139;28;20437;-66
2023/08/13 05:03:35;;;;;;;5.60;5.03;;;16.70;99.90;;;;;;5131173;28;20439;-66
2023/08/13 05:06:02;;;;;;;9.33;5.77;;;16.70;99.90;;;;;;5130343;28;20843;-66
2023/08/13 05:08:29;;;;;;;7.30;5.90;;;16.70;99.90;;;;;;5130397;27;20459;-66
2023/08/13 05:10:56;;;;;;;6.60;5.50;;;16.70;99.90;;;;;;5130322;28;20475;-65
2023/08/13 05:13:22;;;;;;;6.07;5.50;;;16.80;99.90;;;;;;5130838;28;20429;-65
2023/08/13 05:15:49;;;;;;;7.60;5.47;;;16.80;99.90;;;;;;5130401;28;20437;-66
2023/08/13 05:18:16;;;;;;;6.93;4.77;;;17.00;99.90;;;;;;5130395;27;20459;-66
2023/08/13 05:20:44;;;;;;;5.60;4.77;;;17.20;99.90;;;;;;5129980;28;20875;-65
2023/08/13 05:23:11;;;;;;;6.67;5.33;;;17.40;99.90;;;;;;5118204;28;20445;-66
2023/08/13 05:25:38;;;;;;;5.73;4.67;;;17.60;99.90;;;;;;5116325;28;20434;-66
2023/08/13 05:28:07;;;;;;;5.90;4.40;;;17.90;99.90;;;;;;5116178;28;20470;-66
2023/08/13 05:30:35;;;;;;;7.23;4.37;;;18.10;99.90;;;;;;5116138;28;20557;-66
2023/08/13 05:33:02;;;;;;;5.50;4.97;;;18.40;99.90;;;;;;5116336;28;20508;-66
2023/08/13 05:35:29;;;;;;;4.97;4.50;;;18.60;99.90;;;;;;5116336;28;20448;-66
2023/08/13 05:37:57;;;;;;;6.33;4.30;;;18.70;99.90;;;;;;5116504;28;20460;-67
2023/08/13 05:40:24;;;;;;;5.33;3.87;;;18.90;99.90;;;;;;5116474;28;20944;-66
2023/08/13 05:42:51;;;;;;;5.80;4.40;;;19.10;99.90;;;;;;5116135;28;20441;-66
2023/08/13 05:45:18;;;;;;;4.40;4.00;;;19.20;99.90;;;;;;5116313;28;20459;-67
2023/08/13 05:47:45;;;;;;;4.30;3.90;;;19.30;99.90;;;;;;5115958;28;20472;-66
2023/08/13 05:50:12;;;;;;;4.83;4.00;;;19.40;99.90;;;;;;5115934;28;20441;-66
2023/08/13 05:52:38;;;;;;;4.37;3.97;;;19.60;99.90;;;;;;5115887;28;20802;-66
2023/08/13 05:55:07;;;;;;;4.93;3.83;;;19.70;99.90;;;;;;5115724;28;20444;-66
2023/08/13 05:57:34;;;;;;;4.70;4.17;;;19.90;99.90;;;;;;5115599;28;20933;-66
2023/08/13 06:00:01;;;;;;;4.73;4.07;;;20.00;99.90;;;;;;5115973;28;20438;-66
2023/08/13 06:02:28;;;;;;;4.47;4.07;;;20.20;99.90;;;;;;5115525;28;20827;-67
2023/08/13 06:04:55;;;;;;;5.90;3.83;;;20.30;99.90;;;;;;5116561;28;20440;-66
2023/08/13 06:07:21;;;;;;;6.07;4.10;;;20.30;99.90;;;;;;5116100;28;20437;-66
2023/08/13 06:09:48;;;;;;;4.23;3.27;;;20.20;99.90;;;;;;5115784;28;20939;-66
2023/08/13 06:12:16;;;;;;;4.83;4.13;;;20.20;99.90;;;;;;5116254;28;20484;-65
2023/08/13 06:14:43;;;;;;;4.63;3.90;;;20.10;99.90;;;;;;5116052;28;20452;-66
2023/08/13 06:17:10;;;;;;;4.00;3.60;;;20.10;99.90;;;;;;5115676;28;20444;-65
2023/08/13 06:19:37;;;;;;;9.50;4.43;;;20.00;99.90;;;;;;5115526;28;20467;-66
2023/08/13 06:22:04;;;;;;;5.70;4.33;;;20.00;99.90;;;;;;5115678;28;20441;-68
2023/08/13 06:24:30;;;;;;;4.67;3.70;;;19.90;99.90;;;;;;5116343;28;20443;-66
2023/08/13 06:26:57;;;;;;;4.17;3.40;;;20.00;99.90;;;;;;5115749;28;20800;-67
2023/08/13 06:29:25;;;;;;;5.97;3.80;;;20.00;99.90;;;;;;5115419;28;20470;-65
2023/08/13 06:31:52;;;;;;;7.90;3.77;;;20.00;99.90;;;;;;5115021;28;20571;-67
2023/08/13 06:34:19;;;;;;;4.83;4.37;;;19.90;99.90;;;;;;5114374;28;20498;-67
2023/08/13 06:36:46;;;;;;;5.90;4.60;;;19.90;99.90;;;;;;5114855;28;20435;-66
2023/08/13 06:39:13;;;;;;;6.80;4.07;;;19.90;99.90;;;;;;5114822;28;20992;-65
2023/08/13 06:41:40;;;;;;;5.20;3.90;;;19.90;99.90;;;;;;5115303;28;20466;-66
2023/08/13 06:44:07;;;;;;;5.60;3.70;;;20.00;99.90;;;;;;5115195;28;20449;-65
2023/08/13 06:46:35;;;;;;;5.00;3.70;;;20.00;99.90;;;;;;5115075;28;20450;-65
2023/08/13 06:49:02;;;;;;;6.70;3.87;;;20.10;99.90;;;;;;5115105;28;20492;-66
2023/08/13 06:51:29;;;;;;;4.60;3.80;;;20.20;99.90;;;;;;5115479;28;20474;-66
2023/08/13 06:53:55;;;;;;;3.37;3.17;;;20.40;99.90;;;;;;5114847;28;20440;-66
2023/08/13 06:56:22;;;;;;;5.30;3.30;;;20.50;99.90;;;;;;5115024;28;20434;-67
2023/08/13 06:58:49;;;;;;;3.60;3.20;;;20.60;99.90;;;;;;5114643;28;20820;-66
2023/08/13 07:01:16;;;;;;;5.90;3.57;;;20.60;99.90;;;;;;5114680;28;20950;-65
2023/08/13 07:03:44;;;;;;;6.07;3.60;;;20.60;99.90;;;;;;5115347;28;20443;-66
2023/08/13 07:06:11;;;;;;;4.30;2.87;;;20.70;99.90;;;;;;5115288;28;20444;-67
2023/08/13 07:08:38;;;;;;;3.23;2.60;;;20.80;99.90;;;;;;5114227;28;20469;-65
2023/08/13 07:11:05;;;;;;;6.87;3.40;;;20.90;99.90;;;;;;5114275;28;20479;-67
2023/08/13 07:13:31;;;;;;;3.33;2.50;;;20.90;99.90;;;;;;5114834;28;20443;-68
2023/08/13 07:15:58;;;;;;;6.60;2.77;;;21.00;99.90;;;;;;5114428;28;20447;-67
2023/08/13 07:18:25;;;;;;;4.53;3.00;;;20.90;99.90;;;;;;5113874;28;20455;-67
2023/08/13 07:20:53;;;;;;;3.10;2.80;;;20.90;99.90;;;;;;5114220;28;20458;-65
2023/08/13 07:23:20;;;;;;;4.30;3.20;;;21.00;99.90;;;;;;5114363;28;20445;-66
2023/08/13 07:25:47;;;;;;;5.10;2.53;;;21.10;99.90;;;;;;5114117;28;20445;-66
2023/08/13 07:28:13;;;;;;;6.03;3.20;;;21.10;99.90;;;;;;5113796;28;20537;-66
2023/08/13 07:30:41;;;;;;;3.97;2.50;;;21.20;99.90;;;;;;5113586;28;20434;-66
2023/08/13 07:33:08;;;;;;;5.90;2.93;;;21.30;99.90;;;;;;5114301;28;20443;-66
2023/08/13 07:35:35;;;;;;;4.30;2.97;;;21.40;99.90;;;;;;5115086;28;20847;-66
2023/08/13 07:38:03;;;;;;;4.90;2.77;;;21.40;99.90;;;;;;5113976;28;20896;-66
2023/08/13 07:40:30;;;;;;;5.40;3.03;;;21.50;99.90;;;;;;5114083;28;20439;-65
2023/08/13 07:42:59;;;;;;;6.93;2.60;;;21.60;99.90;;;;;;5113903;28;20537;-65
2023/08/13 07:45:26;;;;;;;4.50;3.00;;;21.70;99.90;;;;;;5112953;28;20946;-66
2023/08/13 07:47:53;;;;;;;5.03;2.40;;;21.70;99.90;;;;;;5114043;28;20470;-65
2023/08/13 07:50:20;;;;;;;5.30;2.43;;;21.70;99.90;;;;;;5113432;28;20972;-65
2023/08/13 07:52:47;;;;;;;6.60;2.33;;;21.70;99.90;;;;;;5113565;28;20488;-65
2023/08/13 07:55:15;;;;;;;3.80;2.30;;;21.70;99.90;;;;;;5113480;28;20444;-66
2023/08/13 07:57:42;;;;;;;7.57;3.07;;;21.70;99.90;;;;;;5113549;28;20552;-67
2023/08/13 08:00:10;;;;;;;4.07;2.23;;;21.70;99.90;;;;;;5113116;28;20452;-66
2023/08/13 08:02:37;;;;;;;4.93;2.30;;;21.70;99.90;;;;;;5113518;28;20524;-67
2023/08/13 08:05:05;;;;;;;3.37;2.10;;;21.80;99.90;;;;;;5113824;28;20437;-66
2023/08/13 08:07:32;;;;;;;2.87;1.73;;;21.90;99.80;;;;;;5113851;28;20443;-64
2023/08/13 08:09:59;;;;;;;3.47;2.17;;;22.00;99.10;;;;;;5113298;28;20947;-64
2023/08/13 08:12:27;;;;;;;5.47;2.07;;;22.20;98.60;;;;;;5113438;28;20476;-66
2023/08/13 08:14:54;;;;;;;2.90;1.80;;;22.30;97.40;;;;;;5113283;28;20781;-65
2023/08/13 08:17:21;;;;;;;4.93;2.50;;;22.40;96.10;;;;;;5113568;28;20441;-65
2023/08/13 08:19:49;;;;;;;3.93;2.00;;;22.40;94.80;;;;;;5114125;28;20447;-65
2023/08/13 08:22:16;;;;;;;3.97;1.77;;;22.50;94.40;;;;;;5113698;28;20433;-65
2023/08/13 08:24:42;;;;;;;3.73;2.07;;;22.50;93.70;;;;;;5113635;28;20437;-66
2023/08/13 08:27:10;;;;;;;5.50;2.37;;;22.60;93.40;;;;;;5113020;28;20939;-65
2023/08/13 08:29:38;;;;;;;2.93;1.93;;;22.60;93.10;;;;;;5113282;28;20473;-65
2023/08/13 08:32:05;;;;;;;2.37;2.03;;;22.70;92.80;;;;;;5113272;28;20846;-65
2023/08/13 08:34:33;;;;;;;4.90;2.07;;;22.90;92.10;;;;;;5113308;28;20452;-64
2023/08/13 08:37:00;;;;;;;4.20;2.10;;;23.00;91.10;;;;;;5113274;28;20441;-66
2023/08/13 08:39:26;;;;;;;3.10;1.77;;;23.00;90.50;;;;;;5113455;28;20532;-64
2023/08/13 08:41:57;;;;;;;3.00;2.00;;;23.00;90.20;;;;;;5113656;28;20434;-64
2023/08/13 08:44:25;;;;;;;7.80;2.20;;;23.10;90.10;;;;;;5113451;28;20437;-65
2023/08/13 08:46:54;;;;;;;2.23;1.60;;;23.30;89.00;;;;;;5113884;28;20448;-65
2023/08/13 08:49:22;;;;;;;3.37;1.60;;;23.40;86.50;;;;;;5113690;28;20463;-64
2023/08/13 08:51:50;;;;;;;4.03;2.30;;;23.60;83.20;;;;;;5114479;28;20476;-66
2023/08/13 08:54:17;;;;;;;4.13;1.77;;;23.70;81.00;;;;;;5113634;28;20437;-65
2023/08/13 08:56:44;;;;;;;3.70;2.00;;;23.70;79.10;;;;;;5113365;28;20977;-66
2023/08/13 08:59:11;;;;;;;5.87;1.70;;;23.70;77.80;;;;;;5116935;28;20468;-66
2023/08/13 09:01:38;;;;;;;4.83;1.97;;;23.70;77.90;;;;;;5117883;28;20441;-66
2023/08/13 09:04:06;;;;;;;4.40;1.90;;;23.70;77.40;;;;;;5117050;28;20956;-66
2023/08/13 09:06:56;;;;;;;4.00;1.80;;;23.80;77.30;;;;;;5116545;28;20927;-65
2023/08/13 09:09:23;;;;;;;4.90;1.73;;;23.90;76.90;;;;;;5116766;28;20457;-65
2023/08/13 09:11:50;;;;;;;4.00;1.77;;;24.00;76.10;;;;;;5116988;28;20476;-64
2023/08/13 09:14:18;;;;;;;6.83;2.17;;;24.10;75.30;;;;;;5116680;28;20452;-65
2023/08/13 09:16:48;;;;;;;5.20;2.10;;;24.20;74.40;;;;;;5117148;28;20437;-65
2023/08/13 09:19:17;;;;;;;3.10;1.60;;;24.10;73.50;;;;;;5117158;28;20472;-65
2023/08/13 09:21:50;;;;;;;1.93;1.50;;;24.20;72.50;;;;;;5117150;28;20472;-67
2023/08/13 09:24:16;;;;;;;2.83;1.40;;;24.10;72.30;;;;;;5117106;28;20773;-66
2023/08/13 09:26:43;;;;;;;2.70;1.43;;;24.10;71.40;;;;;;5117710;28;20445;-66
2023/08/13 09:29:10;;;;;;;2.03;1.30;;;24.00;71.20;;;;;;5116694;28;20475;-67
2023/08/13 09:31:37;;;;;;;2.00;1.67;;;24.10;70.50;;;;;;5117702;28;20479;-66
2023/08/13 09:34:04;;;;;;;2.80;1.60;;;24.00;69.20;;;;;;5116526;28;20447;-67
2023/08/13 09:36:33;;;;;;;2.73;1.27;;;24.10;68.90;;;;;;5116601;28;20441;-66
2023/08/13 09:39:00;;;;;;;2.80;1.47;;;24.10;68.80;;;;;;5116483;28;20468;-66
2023/08/13 09:41:27;;;;;;;1.83;1.20;;;24.20;68.00;;;;;;5117181;28;20444;-65
2023/08/13 09:43:55;;;;;;;3.43;1.50;;;24.30;67.50;;;;;;5116681;28;20441;-65
2023/08/13 09:46:25;;;;;;;3.20;1.57;;;24.30;67.30;;;;;;5116843;28;20467;-66
2023/08/13 09:48:55;;;;;;;3.07;1.83;;;24.30;66.80;;;;;;5116352;28;20906;-67
2023/08/13 09:51:26;;;;;;;1.80;1.43;;;24.40;67.30;;;;;;5116395;28;20437;-66
2023/08/13 09:54:00;;;;;;;2.20;1.60;;;24.50;67.80;;;;;;5116253;28;20436;-67
2023/08/13 09:56:29;;;;;;;4.60;1.77;;;24.70;67.60;;;;;;5115924;28;20425;-67
2023/08/13 09:58:56;;;;;;;3.17;1.90;;;24.80;66.90;;;;;;5116025;28;20461;-67
2023/08/13 10:01:25;;;;;;;4.77;1.60;;;24.80;66.30;;;;;;5116280;28;20935;-67
2023/08/13 10:03:52;;;;;;;2.63;1.60;;;24.80;66.90;;;;;;5115786;28;20995;-66
2023/08/13 10:06:20;;;;;;;2.53;1.60;;;24.80;66.40;;;;;;5116610;28;20460;-67
2023/08/13 10:08:47;;;;;;;2.67;1.53;;;24.90;66.20;;;;;;5116346;28;20556;-66
2023/08/13 10:11:16;;;;;;;5.03;2.10;;;25.10;66.00;;;;;;5116690;28;20441;-66
2023/08/13 10:13:43;;;;;;;3.07;1.67;;;25.20;65.10;;;;;;5115802;28;20839;-66
2023/08/13 10:16:10;;;;;;;1.80;1.53;;;25.20;63.90;;;;;;5115646;28;20441;-66
2023/08/13 10:18:37;;;;;;;3.90;2.00;;;25.10;63.30;;;;;;5114950;28;21009;-65
2023/08/13 10:21:04;;;;;;;2.50;1.73;;;25.10;63.70;;;;;;5115692;28;20439;-67
2023/08/13 10:23:31;;;;;;;3.03;1.47;;;25.30;63.40;;;;;;5115498;28;20961;-66
2023/08/13 10:25:58;;;;;;;4.53;1.70;;;25.50;62.50;;;;;;5116496;28;20448;-66
2023/08/13 10:28:31;;;;;;;2.60;1.80;;;25.70;62.10;;;;;;5138731;22;20485;-64
2023/08/13 10:31:20;;;;;;;2.33;1.60;;;25.80;61.60;;;;;;5121297;28;20425;-63
2023/08/13 10:33:47;;;;;;;2.00;1.33;;;25.80;61.50;;;;;;5116501;28;20481;-63
2023/08/13 10:36:13;;;;;;;4.80;2.03;;;25.90;61.50;;;;;;5116414;28;20464;-62
2023/08/13 10:38:41;;;;;;;2.23;1.43;;;26.00;61.20;;;;;;5116499;28;20465;-63
2023/08/13 10:41:07;;;;;;;3.30;1.67;;;26.10;60.60;;;;;;5117951;28;20446;-64
2023/08/13 10:43:36;;;;;;;3.10;1.63;;;26.20;60.10;;;;;;5118412;28;20433;-63
2023/08/13 10:46:04;;;;;;;3.70;2.00;;;26.20;59.30;;;;;;5118982;28;20452;-63
2023/08/13 10:48:31;;;;;;;3.03;1.70;;;26.20;59.60;;;;;;5118193;28;20462;-63
2023/08/13 10:50:58;;;;;;;3.60;1.90;;;26.40;59.40;;;;;;5117821;28;20441;-64
2023/08/13 10:53:28;;;;;;;3.10;1.83;;;26.60;59.10;;;;;;5117222;28;20507;-63
2023/08/13 10:55:56;;;;;;;4.27;2.43;;;26.80;58.60;;;;;;5118276;28;20440;-63
2023/08/13 10:58:25;;;;;;;3.20;2.10;;;27.00;58.20;;;;;;5116972;28;20541;-65
2023/08/13 11:00:57;;;;;;;3.00;2.40;;;27.20;57.90;;;;;;5115540;28;20442;-63
2023/08/13 11:03:28;;;;;;;7.80;2.47;;;27.30;57.50;;;;;;5115203;28;20426;-63
2023/08/13 11:05:55;;;;;;;3.30;1.80;;;27.50;57.00;;;;;;5116268;28;20417;-64
2023/08/13 11:08:23;;;;;;;7.50;2.30;;;27.60;56.60;;;;;;5117631;28;20458;-63
2023/08/13 11:10:52;;;;;;;5.10;1.80;;;27.60;56.40;;;;;;5118937;28;20519;-63
2023/08/13 11:13:20;;;;;;;3.80;2.70;;;27.50;56.20;;;;;;5115932;28;20513;-63
2023/08/13 11:15:53;;;;;;;2.70;1.80;;;27.40;56.20;;;;;;5115094;28;20433;-63
2023/08/13 11:18:21;;;;;;;4.07;2.37;;;27.30;56.40;;;;;;5115806;28;20526;-63
2023/08/13 11:20:50;;;;;;;3.10;1.90;;;27.30;56.60;;;;;;5114517;28;20452;-61
2023/08/13 11:23:18;;;;;;;5.40;2.57;;;27.50;56.60;;;;;;5115670;28;20437;-64
2023/08/13 11:25:46;;;;;;;4.30;2.80;;;27.70;56.90;;;;;;5115764;28;20448;-63
2023/08/13 11:28:19;;;;;;;2.23;1.80;;;27.90;56.00;;;;;;5114522;28;20465;-64
2023/08/13 11:30:47;;;;;;;3.53;1.77;;;28.10;55.80;;;;;;5115400;28;20527;-64
2023/08/13 11:33:15;;;;;;;4.63;2.00;;;28.30;55.40;;;;;;5115511;28;20542;-64
2023/08/13 11:35:42;;;;;;;3.30;1.97;;;28.30;54.80;;;;;;5115442;28;20467;-63
2023/08/13 11:38:09;;;;;;;2.90;1.90;;;28.20;54.80;;;;;;5116258;28;20468;-64
2023/08/13 11:40:37;;;;;;;2.73;1.60;;;28.20;55.10;;;;;;5116268;28;20444;-65
2023/08/13 11:43:04;;;;;;;3.73;2.30;;;28.30;54.80;;;;;;5115337;28;21010;-64
2023/08/13 11:45:32;;;;;;;3.30;2.03;;;28.50;54.50;;;;;;5115784;28;20792;-64
2023/08/13 11:48:09;;;;;;;3.50;2.67;;;28.70;54.40;;;;;;5115840;28;20437;-64
2023/08/13 11:50:39;;;;;;;3.77;2.20;;;29.00;53.90;;;;;;5115461;28;20429;-64
2023/08/13 11:53:09;;;;;;;2.20;2.00;;;29.20;53.30;;;;;;5116415;28;20477;-64
2023/08/13 11:55:38;;;;;;;5.43;2.00;;;29.40;52.60;;;;;;5115283;28;20436;-63
2023/08/13 11:58:05;;;;;;;3.00;2.00;;;29.60;51.80;;;;;;5115760;28;20461;-61
2023/08/13 12:00:33;;;;;;;5.30;2.63;;;29.70;51.00;;;;;;5114740;28;20464;-61
2023/08/13 12:03:00;;;;;;;7.03;2.20;;;29.50;51.00;;;;;;5114822;28;20430;-63
2023/08/13 12:05:29;;;;;;;5.47;2.10;;;29.10;51.50;;;;;;5114524;28;20433;-64
2023/08/13 12:07:58;;;;;;;4.93;2.73;;;28.60;52.20;;;;;;5114883;28;20438;-65
2023/08/13 12:10:25;;;;;;;2.70;1.73;;;28.40;52.80;;;;;;5114542;28;20442;-64
2023/08/13 12:12:52;;;;;;;3.43;2.40;;;28.30;53.20;;;;;;5114315;28;20552;-62
2023/08/13 12:15:23;;;;;;;2.73;1.73;;;28.20;53.30;;;;;;5114152;28;20475;-64
2023/08/13 12:17:50;;;;;;;4.83;2.27;;;27.90;53.50;;;;;;5114926;28;20421;-64
2023/08/13 12:20:17;;;;;;;3.37;2.40;;;27.60;53.90;;;;;;5114690;28;20445;-63
2023/08/13 12:22:44;;;;;;;3.60;2.30;;;27.20;54.30;;;;;;5114483;28;20961;-64
2023/08/13 12:25:12;;;;;;;3.07;2.13;;;27.10;54.80;;;;;;5115095;28;20442;-64
2023/08/13 12:27:38;;;;;;;3.63;2.10;;;26.80;55.20;;;;;;5114748;28;20441;-64
2023/08/13 12:30:07;;;;;;;4.70;2.50;;;26.70;55.60;;;;;;5114304;28;20465;-63
2023/08/13 12:32:34;;;;;;;4.83;2.37;;;26.60;55.80;;;;;;5116290;28;20481;-64
2023/08/13 12:35:00;;;;;;;2.93;1.90;;;26.60;55.80;;;;;;5119173;28;20820;-62
2023/08/13 12:37:27;;;;;;;3.17;2.30;;;26.60;55.60;;;;;;5119423;28;20449;-63
2023/08/13 12:39:54;;;;;;;3.83;2.37;;;26.50;55.40;;;;;;5119675;28;20461;-64
2023/08/13 12:42:22;;;;;;;7.60;2.00;;;26.50;55.40;;;;;;5120043;28;20441;-64
2023/08/13 12:44:49;;;;;;;3.37;1.97;;;26.60;55.30;;;;;;5118811;28;20440;-64
2023/08/13 12:47:17;;;;;;;4.13;2.33;;;26.60;55.10;;;;;;5119805;28;20536;-64
2023/08/13 12:49:44;;;;;;;2.77;1.73;;;26.60;55.00;;;;;;5119011;28;20515;-65